메인 페이지
METAR-TAF:

METAR-TAF

공항 :

Childress, 텍사스, 미국

위도: 34-25-39N, 경도: 100-17-00W, 고도: 595m

현재 날씨관측

예보는 1 시간 7분 전, 01:53시(UTC)에 발표되었습니다.
남남동8kt
온도 12°C
습도 35%
기압 1023 hPa
시정: 16.1km
맑음

METAR: KCDS 190153Z AUTO 15008KT 10SM CLR 12/M03 A3021 RMK AO2 SLP227 T01221028

시각: 22:00 (03:00 UTC)

예보

예보는 3 시간 32분 전, 23:28시(UTC)에 발표되었습니다.
예보 대상 시간: 19일 00시부터 19일 24시까지 (UTC)
남남동11kt
시정: 10km
고도 25000ft 상공 구름 조금
19일 1600시부터 (UTC)
남남서15kt
시정: 10km
고도 8000ft 상공 구름 조금
고도 25000ft 상공 구름 보통

TAF: KCDS 182328Z 1900/1924 15011KT P6SM FEW250 FM191600 21015KT P6SM FEW080 SCT250

4,000개 이상의 공항 관측 자료 및 예보 (METAR 및 TAF 보고).

지도상에서 검색 가능한 기상관측소가 노란 점과 빨간 점으로 표시되어 있습니다.

기상관측소 명을 보려면 표시 위로 마우스를 이동하세요.

날씨 관측과 예보를 보려면 클릭하세요.

지도 변경 : 확대하려면 엑스 표시가 있는 녹색 버튼, 축소하려면 빼기 표시가 있는 녹색 버튼, 다음 페이지의 지도를 보려면 녹색 화살표를 클릭하세요.


METAR-TAF: